Pagina principale
METAR-TAF:

METAR-TAF

Aeroporti :

Aeroporto di Liegi-Bierset

Liegi, Belgio

latitudine: 50-39N, longitudine: 005-27E, altezza: 186 m

Osservazione

Il bollettino è stato emesso 35 minuti fa, alle 06:20 UTC
Vento 8 kt da ovest/sud-ovest
Temperature 17°C
Umidità 68%
Pressione 1012 hPa
Visibilità 10 km o più
nessuna nube inferiore a 1500 m e nessun cumulonembo

METAR: EBLG 180620Z 24008KT CAVOK 17/11 Q1012 NOSIG

Ora: 08:55 (06:55 UTC)

Previsione

Il bollettino è stato emesso 1 ora e 45 minuti fa, alle 05:10 UTC
Previsione valida dal 18 alle 06 UTC al 19 alle 12 UTC
Vento 6 kt da ovest/sud-ovest
Visibilità 10 km o più
Poco nuvoloso ad un'altezza di 3000 ft
Probabilità 40% :
Temporaneamente
dal 18 alle 17 UTC al 18 alle 20 UTC
Visibilità: 4000 m
rovesci di pioggia

TAF: EBLG 180510Z 1806/1912 24006KT 9999 FEW030 PROB40 TEMPO 1817/1820 4000 SHRA

Osservazioni e previsioni meteorologiche di più di 4000 aeroporti (messaggi METAR e TAF).

Le stazioni disponibili sono rappresentate dai dischi gialli e rossi sulla carta.

Puntare il mouse per vedere il nome della stazione.

Clicca sopra per visualizzare le osservazioni e previsioni meteorologiche.

Per cambiare la mappa : fare clic sui pulsanti verdi con una croce nera per ingrandire, il pulsante verde con un trattino per diminuire, o sulla freccia verde per le mappe adiacenti.


METAR-TAF: